createdAt,value
2022-08-28T00:01:24.185Z,6.90
2022-08-28T00:04:30.146Z,7.25
2022-08-28T00:07:35.508Z,6.97
2022-08-28T00:10:42.158Z,7.68
2022-08-28T00:13:50.088Z,7.57
2022-08-28T00:16:56.817Z,6.82
2022-08-28T00:20:02.148Z,6.68
2022-08-28T00:23:08.808Z,6.78
2022-08-28T00:26:34.637Z,7.63
2022-08-28T00:29:40.460Z,8.05
2022-08-28T00:32:45.808Z,6.95
2022-08-28T00:35:52.383Z,6.90
2022-08-28T00:38:59.181Z,7.00
2022-08-28T00:42:05.509Z,6.82
2022-08-28T00:45:13.883Z,7.18
2022-08-28T00:48:19.854Z,6.85
2022-08-28T00:51:37.532Z,7.97
2022-08-28T00:54:55.365Z,7.47
2022-08-28T00:58:05.803Z,7.82
2022-08-28T01:01:14.487Z,7.45
2022-08-28T01:04:23.189Z,7.70
2022-08-28T01:07:29.213Z,7.70
2022-08-28T01:10:36.240Z,8.02
2022-08-28T01:13:46.949Z,7.85
2022-08-28T01:16:56.308Z,7.90
2022-08-28T01:20:09.445Z,7.95
2022-08-28T01:23:23.825Z,7.53
2022-08-28T01:26:32.702Z,7.80
2022-08-28T01:29:38.031Z,8.38
2022-08-28T01:32:47.406Z,8.52
2022-08-28T01:35:52.737Z,7.82
2022-08-28T01:39:04.009Z,8.88
2022-08-28T01:42:11.932Z,8.13
2022-08-28T01:45:20.776Z,8.27
2022-08-28T01:48:29.095Z,8.48
2022-08-28T01:51:37.979Z,8.63
2022-08-28T01:54:43.601Z,9.25
2022-08-28T01:57:54.603Z,8.93
2022-08-28T02:01:00.353Z,8.35
2022-08-28T02:04:07.307Z,8.85
2022-08-28T02:07:12.751Z,9.02
2022-08-28T02:10:18.484Z,9.48
2022-08-28T02:13:26.617Z,8.38
2022-08-28T02:16:32.534Z,7.75
2022-08-28T02:19:38.913Z,7.82
2022-08-28T02:22:45.244Z,7.35
2022-08-28T02:25:50.910Z,7.20
2022-08-28T02:28:59.191Z,7.05
2022-08-28T02:32:06.173Z,6.32
2022-08-28T02:35:13.620Z,5.82
2022-08-28T02:38:18.982Z,5.22
2022-08-28T02:41:24.671Z,4.78
2022-08-28T02:44:32.657Z,4.57
2022-08-28T02:47:38.336Z,5.25
2022-08-28T02:50:44.009Z,4.50
2022-08-28T02:53:50.567Z,4.30
2022-08-28T02:56:56.396Z,4.47
2022-08-28T03:00:04.916Z,4.47
2022-08-28T03:03:10.180Z,4.53
2022-08-28T03:06:16.832Z,4.43
2022-08-28T03:09:22.165Z,4.45
2022-08-28T03:12:27.864Z,4.60
2022-08-28T03:15:35.800Z,4.57
2022-08-28T03:18:41.973Z,4.55
2022-08-28T03:21:47.737Z,4.82
2022-08-28T03:24:53.430Z,4.32
2022-08-28T03:27:58.821Z,5.22
2022-08-28T03:31:07.170Z,4.47
2022-08-28T03:34:12.657Z,4.55
2022-08-28T03:37:18.320Z,4.57
2022-08-28T03:40:24.180Z,4.65
2022-08-28T03:43:30.397Z,4.13
2022-08-28T03:46:39.141Z,4.60
2022-08-28T03:49:45.512Z,4.25
2022-08-28T03:52:50.824Z,4.10
2022-08-28T03:55:56.758Z,4.47
2022-08-28T03:59:05.368Z,4.00
2022-08-28T04:02:13.716Z,4.03
2022-08-28T04:05:19.078Z,4.45
2022-08-28T04:08:25.054Z,4.63
2022-08-28T04:11:30.477Z,4.68
2022-08-28T04:14:36.136Z,4.10
2022-08-28T04:17:44.189Z,4.43
2022-08-28T04:20:49.800Z,4.72
2022-08-28T04:23:55.217Z,4.70
2022-08-28T04:27:00.845Z,3.95
2022-08-28T04:30:06.852Z,4.15
2022-08-28T04:33:18.880Z,4.72
2022-08-28T04:36:24.177Z,5.30
2022-08-28T04:39:29.843Z,4.45
2022-08-28T04:42:35.198Z,4.72
2022-08-28T04:45:43.552Z,5.18
2022-08-28T04:48:51.860Z,4.30
2022-08-28T04:51:57.829Z,5.43
2022-08-28T04:55:03.345Z,4.40
2022-08-28T04:58:09.084Z,4.80
2022-08-28T05:01:21.590Z,4.43
2022-08-28T05:04:29.871Z,4.28
2022-08-28T05:07:35.198Z,5.15
2022-08-28T05:10:40.926Z,4.60
2022-08-28T05:13:46.746Z,4.93
2022-08-28T05:16:57.773Z,4.60
2022-08-28T05:20:06.834Z,4.90
2022-08-28T05:23:13.200Z,4.28
2022-08-28T05:26:21.216Z,4.55
2022-08-28T05:29:26.839Z,4.60
2022-08-28T05:32:32.200Z,4.53
2022-08-28T05:35:42.204Z,4.70
2022-08-28T05:38:47.540Z,4.47
2022-08-28T05:41:53.178Z,4.65
2022-08-28T05:44:59.663Z,4.07
2022-08-28T05:48:05.899Z,4.30
2022-08-28T05:51:17.031Z,4.03
2022-08-28T05:54:23.101Z,3.78
2022-08-28T05:57:28.389Z,4.00
2022-08-28T06:00:34.025Z,4.47
2022-08-28T06:03:40.134Z,4.38
2022-08-28T06:06:49.605Z,3.90
2022-08-28T06:09:54.977Z,4.10
2022-08-28T06:13:01.193Z,4.10
2022-08-28T06:16:07.344Z,3.95
2022-08-28T06:19:15.049Z,4.43
2022-08-28T06:22:22.976Z,3.65
2022-08-28T06:25:28.677Z,3.78
2022-08-28T06:28:34.078Z,4.25
2022-08-28T06:31:39.815Z,4.13
2022-08-28T06:34:45.139Z,4.50
2022-08-28T06:37:53.433Z,4.15
2022-08-28T06:41:00.153Z,4.88
2022-08-28T06:44:06.359Z,4.57
2022-08-28T06:47:11.797Z,4.38
2022-08-28T06:50:17.386Z,5.00
2022-08-28T06:53:27.549Z,4.60
2022-08-28T06:56:33.296Z,5.07
2022-08-28T06:59:38.624Z,5.07
2022-08-28T07:02:44.371Z,4.63
2022-08-28T07:05:49.713Z,5.03
2022-08-28T07:08:57.989Z,4.45
2022-08-28T07:12:03.580Z,4.53
2022-08-28T07:15:10.593Z,4.53
2022-08-28T07:18:16.155Z,4.43
2022-08-28T07:21:21.909Z,4.35
2022-08-28T07:24:30.593Z,4.10
2022-08-28T07:27:36.540Z,4.55
2022-08-28T07:30:41.944Z,4.00
2022-08-28T07:33:50.093Z,4.10
2022-08-28T07:40:14.398Z,4.07
2022-08-28T07:43:32.178Z,3.75
2022-08-28T07:46:40.778Z,4.07
2022-08-28T07:49:46.589Z,4.13
2022-08-28T07:52:52.253Z,4.00
2022-08-28T07:56:00.346Z,4.13
2022-08-28T07:59:06.282Z,4.40
2022-08-28T08:02:13.196Z,4.53
2022-08-28T08:05:19.120Z,4.95
2022-08-28T08:12:03.349Z,4.53
2022-08-28T08:15:09.889Z,4.53
2022-08-28T08:18:15.203Z,4.97
2022-08-28T08:21:29.995Z,5.60
2022-08-28T08:24:35.904Z,4.90
2022-08-28T08:27:44.145Z,4.35
2022-08-28T08:30:49.551Z,4.95
2022-08-28T08:33:58.698Z,5.07
2022-08-28T08:37:05.908Z,5.47
2022-08-28T08:40:15.948Z,4.65
2022-08-28T08:43:25.517Z,4.88
2022-08-28T08:46:37.060Z,3.88
2022-08-28T08:51:21.163Z,4.00
2022-08-28T08:54:26.857Z,4.53
2022-08-28T08:57:34.829Z,4.00
2022-08-28T09:00:55.969Z,4.03
2022-08-28T09:04:07.454Z,3.85
2022-08-28T09:10:26.095Z,3.88
2022-08-28T09:13:41.960Z,3.72
2022-08-28T09:16:49.464Z,3.35
2022-08-28T09:19:55.097Z,3.03
2022-08-28T09:23:12.333Z,4.05
2022-08-28T09:26:26.159Z,3.75
2022-08-28T09:29:35.568Z,3.42
2022-08-28T09:32:44.674Z,3.58
2022-08-28T09:35:54.973Z,3.45
2022-08-28T09:39:25.370Z,3.50
2022-08-28T09:42:43.138Z,3.47
2022-08-28T09:45:54.753Z,3.75
2022-08-28T09:49:12.123Z,3.67
2022-08-28T09:52:25.384Z,3.85
2022-08-28T09:55:42.150Z,3.85
2022-08-28T09:58:49.976Z,4.10
2022-08-28T10:02:06.611Z,3.88
2022-08-28T10:05:17.801Z,4.10
2022-08-28T10:08:39.641Z,4.10
2022-08-28T10:11:54.998Z,3.90
2022-08-28T10:15:07.103Z,4.05
2022-08-28T10:18:24.758Z,4.55
2022-08-28T10:21:35.129Z,4.18
2022-08-28T10:24:56.838Z,3.90
2022-08-28T10:28:23.693Z,4.38
2022-08-28T10:31:39.148Z,4.35
2022-08-28T10:34:55.341Z,4.00
2022-08-28T10:38:12.125Z,4.22
2022-08-28T10:41:22.831Z,4.05
2022-08-28T10:44:39.403Z,4.07
2022-08-28T10:47:47.909Z,4.00
2022-08-28T10:50:57.994Z,3.88
2022-08-28T10:54:08.859Z,3.78
2022-08-28T10:57:31.604Z,3.97
2022-08-28T11:00:43.381Z,4.15
2022-08-28T11:03:53.509Z,4.45
2022-08-28T11:07:03.456Z,4.45
2022-08-28T11:10:41.722Z,4.18
2022-08-28T11:13:54.768Z,4.20
2022-08-28T11:17:05.525Z,4.47
2022-08-28T11:20:19.351Z,4.15
2022-08-28T11:23:30.242Z,4.18
2022-08-28T11:26:44.556Z,4.07
2022-08-28T11:30:32.939Z,4.32
2022-08-28T11:33:46.851Z,4.38
2022-08-28T11:37:02.278Z,4.80
2022-08-28T11:40:21.195Z,3.92
2022-08-28T11:43:41.089Z,4.30
2022-08-28T11:46:47.863Z,4.53
2022-08-28T11:49:56.484Z,4.43
2022-08-28T11:53:25.081Z,4.65
2022-08-28T11:56:55.398Z,5.20
2022-08-28T12:00:08.893Z,4.82
2022-08-28T12:03:16.994Z,4.50
2022-08-28T12:06:52.258Z,4.32
2022-08-28T12:10:02.897Z,4.70
2022-08-28T12:13:11.125Z,4.53
2022-08-28T12:16:17.199Z,4.80
2022-08-28T12:19:30.137Z,4.80
2022-08-28T12:22:50.404Z,4.28
2022-08-28T12:26:05.028Z,4.50
2022-08-28T12:29:26.864Z,4.72
2022-08-28T12:35:43.995Z,4.70
2022-08-28T12:38:54.952Z,5.13
2022-08-28T12:42:01.046Z,4.97
2022-08-28T12:45:10.373Z,4.80
2022-08-28T12:48:19.811Z,5.55
2022-08-28T12:51:27.275Z,5.30
2022-08-28T12:54:35.729Z,5.32
2022-08-28T12:57:48.140Z,5.78
2022-08-28T13:00:57.871Z,5.90
2022-08-28T13:04:07.139Z,5.63
2022-08-28T13:07:18.760Z,5.72
2022-08-28T13:10:29.858Z,5.60
2022-08-28T13:13:40.219Z,5.78
2022-08-28T13:16:47.551Z,5.32
2022-08-28T13:20:05.325Z,9.32
2022-08-28T13:23:10.798Z,5.88
2022-08-28T13:26:26.781Z,6.15
2022-08-28T13:29:32.764Z,5.65
2022-08-28T13:32:42.843Z,5.38
2022-08-28T13:35:50.643Z,6.07
2022-08-28T13:38:56.351Z,5.60
2022-08-28T13:42:09.742Z,6.32
2022-08-28T13:45:15.951Z,6.38
2022-08-28T13:48:24.670Z,5.68
2022-08-28T13:51:30.537Z,6.38
2022-08-28T13:54:36.230Z,6.15
2022-08-28T13:57:44.545Z,5.60
2022-08-28T14:00:52.346Z,6.15
2022-08-28T14:03:56.413Z,5.90
2022-08-28T14:07:01.873Z,6.05
2022-08-28T14:10:08.636Z,6.07
2022-08-28T14:13:17.535Z,5.40
2022-08-28T14:16:23.217Z,6.00
2022-08-28T14:19:28.878Z,6.07
2022-08-28T14:22:34.553Z,5.90
2022-08-28T14:25:44.299Z,6.22
2022-08-28T14:28:52.883Z,5.95
2022-08-28T14:31:58.847Z,6.78
2022-08-28T14:35:04.996Z,5.88
2022-08-28T14:38:10.581Z,6.45
2022-08-28T14:41:17.593Z,6.05
2022-08-28T14:44:27.317Z,7.60
2022-08-28T14:47:33.165Z,6.85
2022-08-28T14:50:42.195Z,7.70
2022-08-28T14:53:48.490Z,6.70
2022-08-28T14:56:54.836Z,7.38
2022-08-28T15:00:03.105Z,6.80
2022-08-28T15:03:08.484Z,7.22
2022-08-28T15:06:14.312Z,7.00
2022-08-28T15:09:21.945Z,6.28
2022-08-28T15:12:27.653Z,7.15
2022-08-28T15:15:35.661Z,6.88
2022-08-28T15:18:41.739Z,6.05
2022-08-28T15:21:51.349Z,6.60
2022-08-28T15:24:57.350Z,5.35
2022-08-28T15:28:02.692Z,5.82
2022-08-28T15:31:11.051Z,5.88
2022-08-28T15:34:22.095Z,5.93
2022-08-28T15:37:31.549Z,5.93
2022-08-28T15:40:50.097Z,5.65
2022-08-28T15:43:57.299Z,5.38
2022-08-28T15:47:06.321Z,5.68
2022-08-28T15:50:13.143Z,5.38
2022-08-28T15:53:18.639Z,6.22
2022-08-28T15:56:25.440Z,5.05
2022-08-28T15:59:40.041Z,4.88
2022-08-28T16:03:01.109Z,5.00
2022-08-28T16:06:15.412Z,4.75
2022-08-28T16:09:21.117Z,4.80
2022-08-28T16:12:26.538Z,4.90
2022-08-28T16:15:32.348Z,5.45
2022-08-28T16:18:41.252Z,4.93
2022-08-28T16:21:46.987Z,5.03
2022-08-28T16:24:52.856Z,5.20
2022-08-28T16:27:58.521Z,4.93
2022-08-28T16:31:19.862Z,4.90
2022-08-28T16:34:31.689Z,5.18
2022-08-28T16:37:44.077Z,4.85
2022-08-28T16:40:50.250Z,4.22
2022-08-28T16:43:58.415Z,5.05
2022-08-28T16:47:08.624Z,4.97
2022-08-28T16:50:22.123Z,4.50
2022-08-28T16:53:28.922Z,4.25
2022-08-28T16:56:40.879Z,6.15
2022-08-28T16:59:53.065Z,4.40
2022-08-28T17:03:06.139Z,4.57
2022-08-28T17:06:19.295Z,4.75
2022-08-28T17:09:26.088Z,4.90
2022-08-28T17:12:35.655Z,5.93
2022-08-28T17:15:46.614Z,5.05
2022-08-28T17:18:53.006Z,4.28
2022-08-28T17:22:14.985Z,5.22
2022-08-28T17:25:20.611Z,4.63
2022-08-28T17:28:26.114Z,4.80
2022-08-28T17:31:31.879Z,4.60
2022-08-28T17:34:37.411Z,4.93
2022-08-28T17:37:46.838Z,4.68
2022-08-28T17:40:53.430Z,4.35
2022-08-28T17:43:59.159Z,4.57
2022-08-28T17:47:04.573Z,3.88
2022-08-28T17:50:11.744Z,3.90
2022-08-28T17:53:21.139Z,3.97
2022-08-28T17:56:35.687Z,4.22
2022-08-28T17:59:41.605Z,4.55
2022-08-28T18:02:50.959Z,4.07
2022-08-28T18:06:01.102Z,4.72
2022-08-28T18:09:13.162Z,4.30
2022-08-28T18:12:18.584Z,4.13
2022-08-28T18:15:24.467Z,4.57
2022-08-28T18:18:32.288Z,4.05
2022-08-28T18:21:43.647Z,4.18
2022-08-28T18:24:55.735Z,4.35
2022-08-28T18:28:01.451Z,4.20
2022-08-28T18:31:08.484Z,3.75
2022-08-28T18:34:21.949Z,4.25
2022-08-28T18:37:27.773Z,4.32
2022-08-28T18:40:37.121Z,3.90
2022-08-28T18:43:42.619Z,3.30
2022-08-28T18:46:57.113Z,3.35
2022-08-28T18:50:05.100Z,4.00
2022-08-28T18:53:10.957Z,4.20
2022-08-28T18:56:20.514Z,3.88
2022-08-28T18:59:33.442Z,4.55
2022-08-28T19:02:41.623Z,3.17
2022-08-28T19:05:51.290Z,3.47
2022-08-28T19:09:08.307Z,3.85
2022-08-28T19:12:16.895Z,3.63
2022-08-28T19:15:23.180Z,3.88
2022-08-28T19:18:31.699Z,3.92
2022-08-28T19:21:39.214Z,3.60
2022-08-28T19:24:49.990Z,3.60
2022-08-28T19:28:00.010Z,3.70
2022-08-28T19:31:08.127Z,3.90
2022-08-28T19:34:19.557Z,3.63
2022-08-28T19:37:25.466Z,4.07
2022-08-28T19:40:31.724Z,3.65
2022-08-28T19:43:44.491Z,3.65
2022-08-28T19:46:52.249Z,3.30
2022-08-28T19:50:01.482Z,3.42
2022-08-28T19:53:07.968Z,3.70
2022-08-28T19:56:17.172Z,3.47
2022-08-28T19:59:28.457Z,3.75
2022-08-28T20:02:36.608Z,3.95
2022-08-28T20:05:44.368Z,3.72
2022-08-28T20:08:51.779Z,4.05
2022-08-28T20:11:59.436Z,3.35
2022-08-28T20:15:09.136Z,3.40
2022-08-28T20:18:19.188Z,3.28
2022-08-28T20:21:28.860Z,3.58
2022-08-28T20:24:43.485Z,3.63
2022-08-28T20:27:49.215Z,3.92
2022-08-28T20:30:57.353Z,3.25
2022-08-28T20:34:03.141Z,3.75
2022-08-28T20:37:08.596Z,3.85
2022-08-28T20:40:18.334Z,3.67
2022-08-28T20:43:23.967Z,3.53
2022-08-28T20:46:36.011Z,3.63
2022-08-28T20:49:45.305Z,3.80
2022-08-28T20:52:51.020Z,4.00
2022-08-28T20:55:58.237Z,3.75
2022-08-28T20:59:03.940Z,3.80
2022-08-28T21:02:14.201Z,3.33
2022-08-28T21:05:20.065Z,3.58
2022-08-28T21:08:26.052Z,3.80
2022-08-28T21:11:31.870Z,3.58
2022-08-28T21:14:37.279Z,3.60
2022-08-28T21:17:45.530Z,3.53
2022-08-28T21:20:50.872Z,3.45
2022-08-28T21:23:57.107Z,2.92
2022-08-28T21:27:02.525Z,3.50
2022-08-28T21:30:11.178Z,3.28
2022-08-28T21:33:19.156Z,3.20
2022-08-28T21:36:25.109Z,3.63
2022-08-28T21:39:30.441Z,3.28
2022-08-28T21:42:36.073Z,3.35
2022-08-28T21:45:41.823Z,3.58
2022-08-28T21:48:51.324Z,3.45
2022-08-28T21:51:56.639Z,3.38
2022-08-28T21:55:05.004Z,3.67
2022-08-28T21:58:10.812Z,3.58
2022-08-28T22:01:18.903Z,3.47
2022-08-28T22:04:26.851Z,3.65
2022-08-28T22:07:32.563Z,3.40
2022-08-28T22:10:40.446Z,3.05
2022-08-28T22:13:46.652Z,3.70
2022-08-28T22:16:52.030Z,2.80
2022-08-28T22:20:00.328Z,3.83
2022-08-28T22:23:12.111Z,3.40
2022-08-28T22:26:20.140Z,3.08
2022-08-28T22:29:25.679Z,2.97
2022-08-28T22:32:31.371Z,3.15
2022-08-28T22:35:39.365Z,3.35
2022-08-28T22:38:47.047Z,3.08
2022-08-28T22:41:58.561Z,3.65
2022-08-28T22:45:04.296Z,3.45
2022-08-28T22:48:10.548Z,3.40
2022-08-28T22:51:21.231Z,3.78
2022-08-28T22:54:26.580Z,3.20
2022-08-28T22:57:32.185Z,3.38
2022-08-28T23:00:38.515Z,3.35
2022-08-28T23:03:45.159Z,3.67
2022-08-28T23:07:00.434Z,3.00
2022-08-28T23:10:06.965Z,3.00
2022-08-28T23:13:14.223Z,3.20
2022-08-28T23:16:24.219Z,3.15
2022-08-28T23:19:30.339Z,3.28
2022-08-28T23:22:38.976Z,3.00
2022-08-28T23:25:44.395Z,3.35
2022-08-28T23:28:50.394Z,2.90
2022-08-28T23:31:55.769Z,3.03
2022-08-28T23:35:01.448Z,3.08
2022-08-28T23:38:09.852Z,2.75
2022-08-28T23:41:15.605Z,3.03
2022-08-28T23:44:20.945Z,3.50
2022-08-28T23:47:26.647Z,3.72
2022-08-28T23:50:31.982Z,2.60
2022-08-28T23:53:40.268Z,3.25
2022-08-28T23:56:45.701Z,3.45
2022-08-28T23:59:51.333Z,2.97
